sensor_id;sensor_type;location;lat;lon;timestamp;pressure;altitude;pressure_sealevel;temperature;humidity
10978;BME280;5542;48.272;10.794;2022-10-16T00:00:30;95727.34;;;13.46;90.14
10978;BME280;5542;48.272;10.794;2022-10-16T00:02:57;95715.97;;;13.45;90.10
10978;BME280;5542;48.272;10.794;2022-10-16T00:05:24;95722.59;;;13.48;89.92
10978;BME280;5542;48.272;10.794;2022-10-16T00:07:50;95731.34;;;13.48;89.72
10978;BME280;5542;48.272;10.794;2022-10-16T00:10:17;95726.28;;;13.47;89.90
10978;BME280;5542;48.272;10.794;2022-10-16T00:12:43;95727.66;;;13.49;89.67
10978;BME280;5542;48.272;10.794;2022-10-16T00:15:11;95722.06;;;13.46;89.79
10978;BME280;5542;48.272;10.794;2022-10-16T00:17:39;95716.50;;;13.47;90.18
10978;BME280;5542;48.272;10.794;2022-10-16T00:20:06;95713.34;;;13.45;89.86
10978;BME280;5542;48.272;10.794;2022-10-16T00:22:33;95722.78;;;13.41;90.59
10978;BME280;5542;48.272;10.794;2022-10-16T00:24:59;95721.41;;;13.39;90.72
10978;BME280;5542;48.272;10.794;2022-10-16T00:27:26;95719.03;;;13.37;90.63
10978;BME280;5542;48.272;10.794;2022-10-16T00:29:53;95722.81;;;13.24;91.45
10978;BME280;5542;48.272;10.794;2022-10-16T00:32:19;95725.25;;;13.26;91.93
10978;BME280;5542;48.272;10.794;2022-10-16T00:34:47;95726.03;;;13.26;91.63
10978;BME280;5542;48.272;10.794;2022-10-16T00:37:14;95731.63;;;13.30;91.90
10978;BME280;5542;48.272;10.794;2022-10-16T00:39:40;95730.28;;;13.27;91.74
10978;BME280;5542;48.272;10.794;2022-10-16T00:42:09;95735.94;;;13.19;92.11
10978;BME280;5542;48.272;10.794;2022-10-16T00:44:45;95739.88;;;13.17;92.32
10978;BME280;5542;48.272;10.794;2022-10-16T00:47:17;95739.31;;;13.15;92.27
10978;BME280;5542;48.272;10.794;2022-10-16T00:49:47;95736.59;;;13.10;92.17
10978;BME280;5542;48.272;10.794;2022-10-16T00:52:16;95743.91;;;13.02;92.99
10978;BME280;5542;48.272;10.794;2022-10-16T00:54:43;95744.53;;;13.10;92.67
10978;BME280;5542;48.272;10.794;2022-10-16T00:57:11;95744.53;;;13.10;92.78
10978;BME280;5542;48.272;10.794;2022-10-16T00:59:40;95742.69;;;13.10;92.67
10978;BME280;5542;48.272;10.794;2022-10-16T01:02:09;95748.78;;;13.11;92.71
10978;BME280;5542;48.272;10.794;2022-10-16T01:04:38;95748.78;;;13.11;93.04
10978;BME280;5542;48.272;10.794;2022-10-16T01:07:13;95744.03;;;13.13;92.90
10978;BME280;5542;48.272;10.794;2022-10-16T01:09:51;95743.00;;;13.14;92.79
10978;BME280;5542;48.272;10.794;2022-10-16T01:12:30;95742.78;;;13.15;92.74
10978;BME280;5542;48.272;10.794;2022-10-16T01:15:06;95737.25;;;13.17;92.64
10978;BME280;5542;48.272;10.794;2022-10-16T01:17:40;95742.03;;;13.20;92.69
10978;BME280;5542;48.272;10.794;2022-10-16T01:20:15;95725.16;;;13.21;92.53
10978;BME280;5542;48.272;10.794;2022-10-16T01:22:55;95725.94;;;13.21;92.40
10978;BME280;5542;48.272;10.794;2022-10-16T01:25:31;95718.84;;;13.22;92.17
10978;BME280;5542;48.272;10.794;2022-10-16T01:28:05;95721.50;;;13.22;91.94
10978;BME280;5542;48.272;10.794;2022-10-16T01:30:36;95719.41;;;13.24;91.56
10978;BME280;5542;48.272;10.794;2022-10-16T01:33:09;95718.03;;;13.21;91.88
10978;BME280;5542;48.272;10.794;2022-10-16T01:35:43;95733.06;;;13.21;92.08
10978;BME280;5542;48.272;10.794;2022-10-16T01:38:14;95720.44;;;13.23;91.33
10978;BME280;5542;48.272;10.794;2022-10-16T01:40:46;95718.03;;;13.21;91.22
10978;BME280;5542;48.272;10.794;2022-10-16T01:43:19;95719.56;;;13.17;91.53
10978;BME280;5542;48.272;10.794;2022-10-16T01:45:47;95730.84;;;13.13;91.68
10978;BME280;5542;48.272;10.794;2022-10-16T01:48:17;95737.97;;;13.12;91.66
10978;BME280;5542;48.272;10.794;2022-10-16T01:50:50;95745.03;;;13.06;92.01
10978;BME280;5542;48.272;10.794;2022-10-16T01:53:18;95739.50;;;13.08;91.57
10978;BME280;5542;48.272;10.794;2022-10-16T01:55:47;95738.06;;;13.00;92.04
10978;BME280;5542;48.272;10.794;2022-10-16T01:58:16;95742.00;;;12.98;92.03
10978;BME280;5542;48.272;10.794;2022-10-16T02:00:45;95732.16;;;12.93;92.11
10978;BME280;5542;48.272;10.794;2022-10-16T02:03:14;95739.22;;;12.88;92.78
10978;BME280;5542;48.272;10.794;2022-10-16T02:05:45;95744.22;;;13.06;91.76
10978;BME280;5542;48.272;10.794;2022-10-16T02:08:13;95742.16;;;12.91;92.24
10978;BME280;5542;48.272;10.794;2022-10-16T02:10:41;95737.75;;;12.97;92.30
10978;BME280;5542;48.272;10.794;2022-10-16T02:13:09;95742.78;;;12.98;91.65
10978;BME280;5542;48.272;10.794;2022-10-16T02:15:39;95736.41;;;12.94;92.36
10978;BME280;5542;48.272;10.794;2022-10-16T02:18:06;95726.09;;;12.93;91.85
10978;BME280;5542;48.272;10.794;2022-10-16T02:20:39;95727.88;;;12.87;92.21
10978;BME280;5542;48.272;10.794;2022-10-16T02:23:12;95733.13;;;12.87;92.60
10978;BME280;5542;48.272;10.794;2022-10-16T02:25:45;95730.72;;;12.86;92.64
10978;BME280;5542;48.272;10.794;2022-10-16T02:28:16;95729.72;;;12.87;93.17
10978;BME280;5542;48.272;10.794;2022-10-16T02:30:49;95731.84;;;12.90;93.10
10978;BME280;5542;48.272;10.794;2022-10-16T02:33:19;95733.44;;;12.91;93.26
10978;BME280;5542;48.272;10.794;2022-10-16T02:35:48;95730.31;;;12.94;92.59
10978;BME280;5542;48.272;10.794;2022-10-16T02:38:16;95731.84;;;12.90;92.62
10978;BME280;5542;48.272;10.794;2022-10-16T02:40:44;95740.34;;;12.92;92.91
10978;BME280;5542;48.272;10.794;2022-10-16T02:43:11;95734.81;;;12.93;92.63
10978;BME280;5542;48.272;10.794;2022-10-16T02:45:38;95744.63;;;12.98;92.20
10978;BME280;5542;48.272;10.794;2022-10-16T02:48:06;95740.63;;;12.95;92.24
10978;BME280;5542;48.272;10.794;2022-10-16T02:50:32;95744.78;;;12.91;92.70
10978;BME280;5542;48.272;10.794;2022-10-16T02:52:59;95742.41;;;12.90;92.87
10978;BME280;5542;48.272;10.794;2022-10-16T02:55:26;95745.91;;;12.95;92.87
10978;BME280;5542;48.272;10.794;2022-10-16T02:57:53;95741.13;;;12.92;92.58
10978;BME280;5542;48.272;10.794;2022-10-16T03:00:19;95744.50;;;12.88;93.20
10978;BME280;5542;48.272;10.794;2022-10-16T03:02:46;95736.50;;;12.82;93.44
10978;BME280;5542;48.272;10.794;2022-10-16T03:05:14;95741.94;;;12.93;92.79
10978;BME280;5542;48.272;10.794;2022-10-16T03:07:41;95747.94;;;12.88;93.18
10978;BME280;5542;48.272;10.794;2022-10-16T03:10:08;95748.97;;;12.87;93.49
10978;BME280;5542;48.272;10.794;2022-10-16T03:12:35;95740.34;;;12.92;93.22
10978;BME280;5542;48.272;10.794;2022-10-16T03:15:01;95755.78;;;12.83;93.89
10978;BME280;5542;48.272;10.794;2022-10-16T03:17:28;95753.75;;;12.90;93.77
10978;BME280;5542;48.272;10.794;2022-10-16T03:19:55;95749.44;;;12.84;93.76
10978;BME280;5542;48.272;10.794;2022-10-16T03:22:23;95750.81;;;12.87;93.75
10978;BME280;5542;48.272;10.794;2022-10-16T03:24:50;95752.00;;;12.79;93.85
10978;BME280;5542;48.272;10.794;2022-10-16T03:27:17;95756.16;;;12.75;94.67
10978;BME280;5542;48.272;10.794;2022-10-16T03:29:43;95757.22;;;12.74;94.98
10978;BME280;5542;48.272;10.794;2022-10-16T03:32:10;95752.97;;;12.73;95.26
10978;BME280;5542;48.272;10.794;2022-10-16T03:34:36;95750.91;;;12.75;95.15
10978;BME280;5542;48.272;10.794;2022-10-16T03:37:03;95755.63;;;12.73;95.46
10978;BME280;5542;48.272;10.794;2022-10-16T03:39:31;95742.44;;;12.73;95.23
10978;BME280;5542;48.272;10.794;2022-10-16T03:41:57;95746.59;;;12.69;95.82
10978;BME280;5542;48.272;10.794;2022-10-16T03:44:24;95742.81;;;12.65;96.04
10978;BME280;5542;48.272;10.794;2022-10-16T03:46:51;95745.47;;;12.65;96.51
10978;BME280;5542;48.272;10.794;2022-10-16T03:49:17;95738.16;;;12.72;95.68
10978;BME280;5542;48.272;10.794;2022-10-16T03:51:44;95752.91;;;12.68;96.32
10978;BME280;5542;48.272;10.794;2022-10-16T03:54:11;95751.88;;;12.69;96.43
10978;BME280;5542;48.272;10.794;2022-10-16T03:56:39;95753.47;;;12.70;96.54
10978;BME280;5542;48.272;10.794;2022-10-16T03:59:05;95763.38;;;12.79;95.92
10978;BME280;5542;48.272;10.794;2022-10-16T04:01:32;95759.75;;;12.86;95.57
10978;BME280;5542;48.272;10.794;2022-10-16T04:03:58;95763.19;;;12.86;94.94
10978;BME280;5542;48.272;10.794;2022-10-16T04:06:25;95760.25;;;12.82;95.20
10978;BME280;5542;48.272;10.794;2022-10-16T04:08:52;95768.47;;;12.86;94.79
10978;BME280;5542;48.272;10.794;2022-10-16T04:11:18;95763.69;;;12.83;95.17
10978;BME280;5542;48.272;10.794;2022-10-16T04:13:46;95749.69;;;12.82;95.51
10978;BME280;5542;48.272;10.794;2022-10-16T04:16:13;95757.91;;;12.86;95.64
10978;BME280;5542;48.272;10.794;2022-10-16T04:18:39;95750.00;;;12.86;95.52
10978;BME280;5542;48.272;10.794;2022-10-16T04:21:06;95745.53;;;12.87;95.60
10978;BME280;5542;48.272;10.794;2022-10-16T04:23:33;95749.53;;;12.89;95.18
10978;BME280;5542;48.272;10.794;2022-10-16T04:26:00;95752.81;;;12.96;94.65
10978;BME280;5542;48.272;10.794;2022-10-16T04:28:27;95748.00;;;12.93;94.76
10978;BME280;5542;48.272;10.794;2022-10-16T04:30:55;95756.72;;;12.94;94.87
10978;BME280;5542;48.272;10.794;2022-10-16T04:33:22;95759.91;;;12.96;94.90
10978;BME280;5542;48.272;10.794;2022-10-16T04:35:48;95762.31;;;12.97;94.67
10978;BME280;5542;48.272;10.794;2022-10-16T04:38:15;95757.03;;;12.97;94.77
10978;BME280;5542;48.272;10.794;2022-10-16T04:40:42;95756.78;;;12.99;94.47
10978;BME280;5542;48.272;10.794;2022-10-16T04:43:08;95764.97;;;12.97;94.27
10978;BME280;5542;48.272;10.794;2022-10-16T04:45:35;95770.72;;;12.94;94.10
10978;BME280;5542;48.272;10.794;2022-10-16T04:48:03;95772.56;;;12.94;93.57
10978;BME280;5542;48.272;10.794;2022-10-16T04:50:30;95767.53;;;12.92;93.54
10978;BME280;5542;48.272;10.794;2022-10-16T04:52:57;95762.25;;;12.92;93.18
10978;BME280;5542;48.272;10.794;2022-10-16T04:55:23;95773.81;;;12.91;92.90
10978;BME280;5542;48.272;10.794;2022-10-16T04:57:50;95764.81;;;12.87;93.09
10978;BME280;5542;48.272;10.794;2022-10-16T05:00:17;95759.53;;;12.87;92.93
10978;BME280;5542;48.272;10.794;2022-10-16T05:02:44;95763.75;;;12.88;92.67
10978;BME280;5542;48.272;10.794;2022-10-16T05:05:12;95762.97;;;12.88;92.65
10978;BME280;5542;48.272;10.794;2022-10-16T05:07:39;95765.84;;;12.86;92.22
10978;BME280;5542;48.272;10.794;2022-10-16T05:10:06;95777.44;;;12.85;92.41
10978;BME280;5542;48.272;10.794;2022-10-16T05:12:33;95771.63;;;12.83;91.97
10978;BME280;5542;48.272;10.794;2022-10-16T05:15:00;95783.44;;;12.80;91.99
10978;BME280;5542;48.272;10.794;2022-10-16T05:17:26;95780.25;;;12.78;91.88
10978;BME280;5542;48.272;10.794;2022-10-16T05:19:53;95782.56;;;12.75;92.03
10978;BME280;5542;48.272;10.794;2022-10-16T05:22:21;95780.97;;;12.74;92.11
10978;BME280;5542;48.272;10.794;2022-10-16T05:24:47;95776.72;;;12.73;92.13
10978;BME280;5542;48.272;10.794;2022-10-16T05:27:14;95782.00;;;12.73;92.13
10978;BME280;5542;48.272;10.794;2022-10-16T05:29:44;95788.31;;;12.72;92.00
10978;BME280;5542;48.272;10.794;2022-10-16T05:32:11;95798.06;;;12.71;92.20
10978;BME280;5542;48.272;10.794;2022-10-16T05:34:37;95794.16;;;12.74;91.73
10978;BME280;5542;48.272;10.794;2022-10-16T05:37:04;95791.19;;;12.70;91.26
10978;BME280;5542;48.272;10.794;2022-10-16T05:39:32;95787.50;;;12.71;91.11
10978;BME280;5542;48.272;10.794;2022-10-16T05:41:59;95794.56;;;12.66;91.28
10978;BME280;5542;48.272;10.794;2022-10-16T05:44:25;95791.59;;;12.62;91.70
10978;BME280;5542;48.272;10.794;2022-10-16T05:46:52;95795.84;;;12.63;91.73
10978;BME280;5542;48.272;10.794;2022-10-16T05:49:18;95794.22;;;12.62;91.82
10978;BME280;5542;48.272;10.794;2022-10-16T05:51:45;95796.31;;;12.60;91.94
10978;BME280;5542;48.272;10.794;2022-10-16T05:54:12;95803.19;;;12.61;92.16
10978;BME280;5542;48.272;10.794;2022-10-16T05:56:40;95811.34;;;12.60;92.25
10978;BME280;5542;48.272;10.794;2022-10-16T05:59:06;95807.91;;;12.59;92.38
10978;BME280;5542;48.272;10.794;2022-10-16T06:01:33;95813.97;;;12.60;92.22
10978;BME280;5542;48.272;10.794;2022-10-16T06:04:00;95807.41;;;12.62;91.80
10978;BME280;5542;48.272;10.794;2022-10-16T06:06:28;95818.69;;;12.57;92.03
10978;BME280;5542;48.272;10.794;2022-10-16T06:08:55;95814.44;;;12.56;92.08
10978;BME280;5542;48.272;10.794;2022-10-16T06:11:24;95814.44;;;12.56;92.07
10978;BME280;5542;48.272;10.794;2022-10-16T06:13:54;95812.84;;;12.55;92.28
10978;BME280;5542;48.272;10.794;2022-10-16T06:16:22;95817.09;;;12.56;92.43
10978;BME280;5542;48.272;10.794;2022-10-16T06:18:50;95821.31;;;12.57;92.57
10978;BME280;5542;48.272;10.794;2022-10-16T06:21:18;95817.88;;;12.57;92.60
10978;BME280;5542;48.272;10.794;2022-10-16T06:23:46;95829.22;;;12.57;92.77
10978;BME280;5542;48.272;10.794;2022-10-16T06:26:14;95824.78;;;12.58;92.48
10978;BME280;5542;48.272;10.794;2022-10-16T06:28:41;95830.84;;;12.59;92.86
10978;BME280;5542;48.272;10.794;2022-10-16T06:31:10;95836.94;;;12.59;93.14
10978;BME280;5542;48.272;10.794;2022-10-16T06:33:38;95848.44;;;12.70;93.59
10978;BME280;5542;48.272;10.794;2022-10-16T06:36:06;95844.47;;;12.84;94.98
10978;BME280;5542;48.272;10.794;2022-10-16T06:38:34;95848.00;;;13.23;96.31
10978;BME280;5542;48.272;10.794;2022-10-16T06:41:00;95844.56;;;13.78;95.65
10978;BME280;5542;48.272;10.794;2022-10-16T06:43:28;95849.88;;;14.27;92.49
10978;BME280;5542;48.272;10.794;2022-10-16T06:45:58;95857.03;;;14.81;87.26
10978;BME280;5542;48.272;10.794;2022-10-16T06:48:26;95853.25;;;15.36;82.76
10978;BME280;5542;48.272;10.794;2022-10-16T06:50:57;95853.31;;;15.88;80.28
10978;BME280;5542;48.272;10.794;2022-10-16T06:53:24;95855.34;;;16.34;76.52
10978;BME280;5542;48.272;10.794;2022-10-16T06:55:51;95859.69;;;16.76;73.70
10978;BME280;5542;48.272;10.794;2022-10-16T06:58:18;95858.16;;;17.10;71.48
10978;BME280;5542;48.272;10.794;2022-10-16T07:00:44;95862.63;;;16.95;72.10
10978;BME280;5542;48.272;10.794;2022-10-16T07:03:11;95859.72;;;16.81;71.51
10978;BME280;5542;48.272;10.794;2022-10-16T07:05:40;95871.66;;;16.83;72.88
10978;BME280;5542;48.272;10.794;2022-10-16T07:08:07;95868.25;;;17.19;71.11
10978;BME280;5542;48.272;10.794;2022-10-16T07:10:34;95878.06;;;17.44;70.57
10978;BME280;5542;48.272;10.794;2022-10-16T07:13:00;95885.72;;;17.96;68.21
10978;BME280;5542;48.272;10.794;2022-10-16T07:15:27;95886.91;;;18.29;67.75
10978;BME280;5542;48.272;10.794;2022-10-16T07:17:54;95881.22;;;18.56;65.64
10978;BME280;5542;48.272;10.794;2022-10-16T07:20:20;95885.44;;;19.07;64.60
10978;BME280;5542;48.272;10.794;2022-10-16T07:22:48;95886.78;;;19.38;64.24
10978;BME280;5542;48.272;10.794;2022-10-16T07:25:15;95891.63;;;19.94;61.07
10978;BME280;5542;48.272;10.794;2022-10-16T07:27:42;95887.94;;;20.14;58.06
10978;BME280;5542;48.272;10.794;2022-10-16T07:30:09;95891.91;;;19.93;59.61
10978;BME280;5542;48.272;10.794;2022-10-16T07:32:36;95886.13;;;20.10;59.29
10978;BME280;5542;48.272;10.794;2022-10-16T07:35:03;95899.41;;;19.91;58.55
10978;BME280;5542;48.272;10.794;2022-10-16T07:37:29;95900.84;;;19.78;58.61
10978;BME280;5542;48.272;10.794;2022-10-16T07:39:57;95909.66;;;19.79;59.55
10978;BME280;5542;48.272;10.794;2022-10-16T07:42:24;95912.22;;;19.89;58.76
10978;BME280;5542;48.272;10.794;2022-10-16T07:44:50;95908.28;;;20.10;59.64
10978;BME280;5542;48.272;10.794;2022-10-16T07:47:17;95910.00;;;20.44;56.93
10978;BME280;5542;48.272;10.794;2022-10-16T07:49:44;95901.56;;;20.61;57.01
10978;BME280;5542;48.272;10.794;2022-10-16T07:52:10;95910.16;;;20.77;56.98
10978;BME280;5542;48.272;10.794;2022-10-16T07:54:37;95911.91;;;21.05;57.31
10978;BME280;5542;48.272;10.794;2022-10-16T07:57:05;95920.31;;;21.50;56.57
10978;BME280;5542;48.272;10.794;2022-10-16T07:59:31;95919.22;;;21.97;53.58
10978;BME280;5542;48.272;10.794;2022-10-16T08:01:58;95917.00;;;22.46;54.37
10978;BME280;5542;48.272;10.794;2022-10-16T08:04:25;95922.72;;;22.81;52.67
10978;BME280;5542;48.272;10.794;2022-10-16T08:06:51;95923.38;;;22.86;50.45
10978;BME280;5542;48.272;10.794;2022-10-16T08:09:19;95924.63;;;22.53;49.62
10978;BME280;5542;48.272;10.794;2022-10-16T08:11:46;95938.19;;;22.01;51.28
10978;BME280;5542;48.272;10.794;2022-10-16T08:14:14;95936.13;;;21.65;52.63
10978;BME280;5542;48.272;10.794;2022-10-16T08:16:40;95941.53;;;21.46;54.13
10978;BME280;5542;48.272;10.794;2022-10-16T08:19:07;95939.50;;;21.19;55.31
10978;BME280;5542;48.272;10.794;2022-10-16T08:21:34;95933.84;;;21.02;56.22
10978;BME280;5542;48.272;10.794;2022-10-16T08:24:00;95932.41;;;20.91;57.28
10978;BME280;5542;48.272;10.794;2022-10-16T08:26:27;95929.34;;;20.79;58.50
10978;BME280;5542;48.272;10.794;2022-10-16T08:28:54;95938.84;;;20.90;58.56
10978;BME280;5542;48.272;10.794;2022-10-16T08:31:22;95941.22;;;21.29;60.46
10978;BME280;5542;48.272;10.794;2022-10-16T08:33:49;95942.97;;;21.39;59.48
10978;BME280;5542;48.272;10.794;2022-10-16T08:36:17;95945.00;;;21.47;58.96
10978;BME280;5542;48.272;10.794;2022-10-16T08:38:43;95937.47;;;21.49;59.67
10978;BME280;5542;48.272;10.794;2022-10-16T08:41:28;95943.66;;;21.63;59.43
10978;BME280;5542;48.272;10.794;2022-10-16T08:44:23;95959.78;;;21.91;59.19
10978;BME280;5542;48.272;10.794;2022-10-16T08:47:02;95953.22;;;22.30;59.00
10978;BME280;5542;48.272;10.794;2022-10-16T08:49:32;95955.25;;;22.88;57.08
10978;BME280;5542;48.272;10.794;2022-10-16T08:51:59;95959.97;;;23.32;54.80
10978;BME280;5542;48.272;10.794;2022-10-16T08:54:30;95962.53;;;23.60;51.67
10978;BME280;5542;48.272;10.794;2022-10-16T08:57:04;95966.66;;;23.80;52.00
10978;BME280;5542;48.272;10.794;2022-10-16T08:59:33;95962.84;;;24.03;51.08
10978;BME280;5542;48.272;10.794;2022-10-16T09:02:01;95968.28;;;24.20;50.99
10978;BME280;5542;48.272;10.794;2022-10-16T09:04:48;95968.00;;;24.31;50.24
10978;BME280;5542;48.272;10.794;2022-10-16T09:07:23;95970.53;;;24.27;50.21
10978;BME280;5542;48.272;10.794;2022-10-16T09:10:08;95972.03;;;24.11;49.53
10978;BME280;5542;48.272;10.794;2022-10-16T09:12:40;95983.56;;;24.11;50.14
10978;BME280;5542;48.272;10.794;2022-10-16T09:15:22;95979.59;;;24.09;49.12
10978;BME280;5542;48.272;10.794;2022-10-16T09:17:58;95978.19;;;23.80;50.04
10978;BME280;5542;48.272;10.794;2022-10-16T09:20:33;95978.13;;;23.71;50.80
10978;BME280;5542;48.272;10.794;2022-10-16T09:23:18;95975.69;;;23.47;50.80
10978;BME280;5542;48.272;10.794;2022-10-16T09:25:47;95976.56;;;23.20;50.15
10978;BME280;5542;48.272;10.794;2022-10-16T09:28:15;95985.66;;;23.11;51.59
10978;BME280;5542;48.272;10.794;2022-10-16T09:30:42;95983.50;;;22.99;51.82
10978;BME280;5542;48.272;10.794;2022-10-16T09:33:12;95992.31;;;22.86;52.01
10978;BME280;5542;48.272;10.794;2022-10-16T09:35:42;95995.63;;;22.55;53.14
10978;BME280;5542;48.272;10.794;2022-10-16T09:38:21;96002.47;;;22.47;53.95
10978;BME280;5542;48.272;10.794;2022-10-16T09:40:48;96001.06;;;22.50;54.72
10978;BME280;5542;48.272;10.794;2022-10-16T09:43:21;96001.56;;;22.52;54.29
10978;BME280;5542;48.272;10.794;2022-10-16T09:45:57;96004.44;;;22.56;54.89
10978;BME280;5542;48.272;10.794;2022-10-16T09:48:27;95997.19;;;22.56;53.37
10978;BME280;5542;48.272;10.794;2022-10-16T09:50:59;95997.19;;;22.56;54.08
10978;BME280;5542;48.272;10.794;2022-10-16T09:53:38;95997.47;;;22.55;52.91
10978;BME280;5542;48.272;10.794;2022-10-16T09:56:06;95997.78;;;22.53;54.57
10978;BME280;5542;48.272;10.794;2022-10-16T09:58:33;96000.78;;;22.52;54.54
10978;BME280;5542;48.272;10.794;2022-10-16T10:00:59;95996.59;;;22.45;55.82
10978;BME280;5542;48.272;10.794;2022-10-16T10:03:35;96004.94;;;22.44;55.68
10978;BME280;5542;48.272;10.794;2022-10-16T10:06:15;96008.91;;;22.46;55.55
10978;BME280;5542;48.272;10.794;2022-10-16T10:08:54;96008.31;;;22.63;54.62
10978;BME280;5542;48.272;10.794;2022-10-16T10:11:36;96006.13;;;22.79;55.50
10978;BME280;5542;48.272;10.794;2022-10-16T10:14:05;96004.06;;;22.90;54.11
10978;BME280;5542;48.272;10.794;2022-10-16T10:16:32;96000.69;;;22.98;53.22
10978;BME280;5542;48.272;10.794;2022-10-16T10:19:00;96007.94;;;22.84;53.76
10978;BME280;5542;48.272;10.794;2022-10-16T10:21:27;95998.78;;;22.85;53.15
10978;BME280;5542;48.272;10.794;2022-10-16T10:23:57;96002.06;;;22.82;52.04
10978;BME280;5542;48.272;10.794;2022-10-16T10:26:27;96009.63;;;22.80;53.28
10978;BME280;5542;48.272;10.794;2022-10-16T10:28:59;95996.59;;;22.73;54.44
10978;BME280;5542;48.272;10.794;2022-10-16T10:34:11;96004.94;;;22.85;52.97
10978;BME280;5542;48.272;10.794;2022-10-16T10:36:51;96009.41;;;22.62;53.73
10978;BME280;5542;48.272;10.794;2022-10-16T10:39:27;96002.56;;;22.70;52.04
10978;BME280;5542;48.272;10.794;2022-10-16T10:42:08;96005.53;;;22.55;53.61
10978;BME280;5542;48.272;10.794;2022-10-16T10:50:39;96005.53;;;22.55;53.24
10978;BME280;5542;48.272;10.794;2022-10-16T10:53:15;96006.91;;;22.38;54.96
10978;BME280;5542;48.272;10.794;2022-10-16T10:55:47;96004.03;;;22.48;54.07
10978;BME280;5542;48.272;10.794;2022-10-16T10:58:36;96002.75;;;22.60;52.99
10978;BME280;5542;48.272;10.794;2022-10-16T11:01:09;95998.78;;;22.71;52.63
10978;BME280;5542;48.272;10.794;2022-10-16T11:04:01;96003.84;;;22.86;50.04
10978;BME280;5542;48.272;10.794;2022-10-16T11:06:36;95990.06;;;22.79;51.01
10978;BME280;5542;48.272;10.794;2022-10-16T11:09:11;95999.50;;;22.90;50.21
10978;BME280;5542;48.272;10.794;2022-10-16T11:11:42;96002.97;;;22.91;50.88
10978;BME280;5542;48.272;10.794;2022-10-16T11:14:14;95998.38;;;23.05;50.78
10978;BME280;5542;48.272;10.794;2022-10-16T11:16:47;95992.13;;;22.96;49.50
10978;BME280;5542;48.272;10.794;2022-10-16T11:19:25;95994.59;;;23.06;48.45
10978;BME280;5542;48.272;10.794;2022-10-16T11:22:01;96001.59;;;22.93;49.85
10978;BME280;5542;48.272;10.794;2022-10-16T11:24:37;95996.69;;;22.95;49.01
10978;BME280;5542;48.272;10.794;2022-10-16T11:27:09;96000.16;;;22.82;49.31
10978;BME280;5542;48.272;10.794;2022-10-16T11:29:46;96001.06;;;22.78;52.15
10978;BME280;5542;48.272;10.794;2022-10-16T11:32:21;95998.69;;;23.04;49.41
10978;BME280;5542;48.272;10.794;2022-10-16T11:34:51;96002.19;;;22.90;50.98
10978;BME280;5542;48.272;10.794;2022-10-16T11:37:23;95995.47;;;22.88;50.93
10978;BME280;5542;48.272;10.794;2022-10-16T11:39:52;95995.41;;;22.93;51.40
10978;BME280;5542;48.272;10.794;2022-10-16T11:42:26;95990.09;;;23.15;51.55
10978;BME280;5542;48.272;10.794;2022-10-16T11:45:00;95990.09;;;23.15;50.45
10978;BME280;5542;48.272;10.794;2022-10-16T11:47:35;95984.47;;;23.17;49.96
10978;BME280;5542;48.272;10.794;2022-10-16T11:50:05;95982.81;;;23.30;47.93
10978;BME280;5542;48.272;10.794;2022-10-16T11:52:40;95987.94;;;23.40;47.61
10978;BME280;5542;48.272;10.794;2022-10-16T11:55:16;95988.25;;;23.38;44.78
10978;BME280;5542;48.272;10.794;2022-10-16T11:57:46;95976.41;;;23.39;44.66
10978;BME280;5542;48.272;10.794;2022-10-16T12:00:21;95982.22;;;23.33;45.46
10978;BME280;5542;48.272;10.794;2022-10-16T12:02:55;95972.59;;;23.54;45.06
10978;BME280;5542;48.272;10.794;2022-10-16T12:05:29;95967.19;;;23.68;43.21
10978;BME280;5542;48.272;10.794;2022-10-16T12:08:08;95966.50;;;23.62;42.08
10978;BME280;5542;48.272;10.794;2022-10-16T12:10:37;95962.09;;;23.44;42.77
10978;BME280;5542;48.272;10.794;2022-10-16T12:13:04;95959.78;;;23.51;43.05
10978;BME280;5542;48.272;10.794;2022-10-16T12:15:33;95961.06;;;23.54;42.90
10978;BME280;5542;48.272;10.794;2022-10-16T12:18:00;95951.75;;;23.51;42.50
10978;BME280;5542;48.272;10.794;2022-10-16T12:20:28;95956.31;;;23.50;43.28
10978;BME280;5542;48.272;10.794;2022-10-16T12:22:59;95954.91;;;23.53;43.68
10978;BME280;5542;48.272;10.794;2022-10-16T12:25:29;95950.34;;;23.76;41.12
10978;BME280;5542;48.272;10.794;2022-10-16T12:28:07;95955.84;;;23.71;42.18
10978;BME280;5542;48.272;10.794;2022-10-16T12:30:52;95956.84;;;23.61;42.14
10978;BME280;5542;48.272;10.794;2022-10-16T12:33:22;95955.53;;;23.50;42.43
10978;BME280;5542;48.272;10.794;2022-10-16T12:35:50;95958.44;;;23.62;42.67
10978;BME280;5542;48.272;10.794;2022-10-16T12:38:19;95953.66;;;23.59;43.21
10978;BME280;5542;48.272;10.794;2022-10-16T12:40:55;95961.13;;;23.62;43.94
10978;BME280;5542;48.272;10.794;2022-10-16T12:43:26;95958.84;;;23.69;43.32
10978;BME280;5542;48.272;10.794;2022-10-16T12:46:05;95955.91;;;23.80;42.45
10978;BME280;5542;48.272;10.794;2022-10-16T12:48:32;95958.75;;;23.83;42.85
10978;BME280;5542;48.272;10.794;2022-10-16T12:51:09;95960.78;;;23.77;41.79
10978;BME280;5542;48.272;10.794;2022-10-16T12:56:16;95962.59;;;23.68;42.50
10978;BME280;5542;48.272;10.794;2022-10-16T12:58:59;95956.06;;;23.83;42.23
10978;BME280;5542;48.272;10.794;2022-10-16T13:01:47;95962.66;;;23.77;42.47
10978;BME280;5542;48.272;10.794;2022-10-16T13:04:35;95968.16;;;23.72;43.26
10978;BME280;5542;48.272;10.794;2022-10-16T13:07:18;95965.00;;;23.70;42.62
10978;BME280;5542;48.272;10.794;2022-10-16T13:09:57;95972.75;;;23.71;41.98
10978;BME280;5542;48.272;10.794;2022-10-16T13:15:36;95977.88;;;23.82;42.60
10978;BME280;5542;48.272;10.794;2022-10-16T13:18:13;95977.06;;;23.81;43.19
10978;BME280;5542;48.272;10.794;2022-10-16T13:20:55;95979.63;;;23.86;43.42
10978;BME280;5542;48.272;10.794;2022-10-16T13:23:27;95972.38;;;23.87;40.21
10978;BME280;5542;48.272;10.794;2022-10-16T13:26:07;95976.28;;;23.81;42.57
10978;BME280;5542;48.272;10.794;2022-10-16T13:28:37;95972.31;;;23.78;41.52